createdAt,value
2019-03-24T00:00:25.051Z,1001.95
2019-03-24T00:01:25.023Z,1001.93
2019-03-24T00:02:25.026Z,1001.97
2019-03-24T00:03:25.001Z,1001.94
2019-03-24T00:04:24.998Z,1001.90
2019-03-24T00:05:25.037Z,1001.90
2019-03-24T00:06:25.183Z,1001.91
2019-03-24T00:07:24.956Z,1001.91
2019-03-24T00:08:24.961Z,1001.93
2019-03-24T00:09:24.935Z,1001.95
2019-03-24T00:10:24.925Z,1001.98
2019-03-24T00:11:24.964Z,1002.01
2019-03-24T00:12:24.929Z,1001.97
2019-03-24T00:13:25.081Z,1001.96
2019-03-24T00:14:24.920Z,1001.98
2019-03-24T00:15:26.538Z,1001.90
2019-03-24T00:16:24.873Z,1001.93
2019-03-24T00:17:24.909Z,1001.91
2019-03-24T00:18:24.840Z,1001.89
2019-03-24T00:19:24.851Z,1001.91
2019-03-24T00:20:24.857Z,1001.89
2019-03-24T00:21:24.806Z,1001.90
2019-03-24T00:22:24.815Z,1001.84
2019-03-24T00:23:24.819Z,1001.84
2019-03-24T00:24:24.776Z,1001.86
2019-03-24T00:25:24.768Z,1001.88
2019-03-24T00:26:24.751Z,1001.84
2019-03-24T00:27:24.881Z,1001.86
2019-03-24T00:28:24.738Z,1001.85
2019-03-24T00:29:24.776Z,1001.88
2019-03-24T00:30:24.717Z,1001.85
2019-03-24T00:31:24.707Z,1001.87
2019-03-24T00:32:24.713Z,1001.85
2019-03-24T00:33:24.679Z,1001.81
2019-03-24T00:34:24.666Z,1001.83
2019-03-24T00:35:24.707Z,1001.76
2019-03-24T00:36:24.654Z,1001.81
2019-03-24T00:37:24.654Z,1001.80
2019-03-24T00:38:24.639Z,1001.77
2019-03-24T00:39:24.614Z,1001.75
2019-03-24T00:40:24.615Z,1001.79
2019-03-24T00:41:24.605Z,1001.73
2019-03-24T00:42:24.620Z,1001.74
2019-03-24T00:43:24.601Z,1001.78
2019-03-24T00:44:24.567Z,1001.78
2019-03-24T00:45:24.562Z,1001.74
2019-03-24T00:46:24.557Z,1001.73
2019-03-24T00:47:24.538Z,1001.68
2019-03-24T00:48:24.577Z,1001.69
2019-03-24T00:49:24.523Z,1001.66
2019-03-24T00:50:24.533Z,1001.67
2019-03-24T00:51:24.500Z,1001.69
2019-03-24T00:52:24.476Z,1001.68
2019-03-24T00:53:24.511Z,1001.67
2019-03-24T00:54:24.457Z,1001.66
2019-03-24T00:55:24.462Z,1001.69
2019-03-24T00:56:24.436Z,1001.65
2019-03-24T00:57:24.425Z,1001.63
2019-03-24T00:58:24.476Z,1001.63
2019-03-24T00:59:24.406Z,1001.61
2019-03-24T01:00:24.393Z,1001.56
2019-03-24T01:01:24.381Z,1001.61
2019-03-24T01:02:24.368Z,1001.63
2019-03-24T01:03:24.385Z,1001.60
2019-03-24T01:04:24.394Z,1001.64
2019-03-24T01:05:24.337Z,1001.65
2019-03-24T01:06:24.336Z,1001.66
2019-03-24T01:07:24.317Z,1001.67
2019-03-24T01:08:24.345Z,1001.59
2019-03-24T01:09:24.352Z,1001.62
2019-03-24T01:10:24.333Z,1001.66
2019-03-24T01:11:24.275Z,1001.67
2019-03-24T01:12:24.268Z,1001.62
2019-03-24T01:13:24.322Z,1001.62
2019-03-24T01:14:24.245Z,1001.62
2019-03-24T01:15:24.239Z,1001.55
2019-03-24T01:16:24.250Z,1001.61
2019-03-24T01:17:24.209Z,1001.58
2019-03-24T01:18:24.227Z,1001.65
2019-03-24T01:19:24.193Z,1001.57
2019-03-24T01:20:24.179Z,1001.62
2019-03-24T01:21:24.168Z,1001.63
2019-03-24T01:22:24.193Z,1001.65
2019-03-24T01:23:24.148Z,1001.61
2019-03-24T01:24:24.152Z,1001.57
2019-03-24T01:25:24.141Z,1001.61
2019-03-24T01:26:24.124Z,1001.55
2019-03-24T01:27:24.145Z,1001.59
2019-03-24T01:28:24.095Z,1001.60
2019-03-24T01:29:24.146Z,1001.62
2019-03-24T01:30:24.144Z,1001.62
2019-03-24T01:31:24.077Z,1001.61
2019-03-24T01:32:24.065Z,1001.63
2019-03-24T01:33:24.047Z,1001.60
2019-03-24T01:34:24.095Z,1001.61
2019-03-24T01:35:24.014Z,1001.64
2019-03-24T01:36:24.066Z,1001.59
2019-03-24T01:37:24.024Z,1001.60
2019-03-24T01:38:23.985Z,1001.59
2019-03-24T01:39:23.991Z,1001.57
2019-03-24T01:40:24.030Z,1001.57
2019-03-24T01:41:23.975Z,1001.53
2019-03-24T01:42:23.995Z,1001.54
2019-03-24T01:43:23.958Z,1001.53
2019-03-24T01:44:23.945Z,1001.50
2019-03-24T01:45:23.932Z,1001.49
2019-03-24T01:46:23.931Z,1001.47
2019-03-24T01:47:23.912Z,1001.46
2019-03-24T01:48:23.948Z,1001.50
2019-03-24T01:49:23.883Z,1001.48
2019-03-24T01:50:23.855Z,1001.47
2019-03-24T01:51:23.879Z,1001.46
2019-03-24T01:52:23.856Z,1001.45
2019-03-24T01:53:23.851Z,1001.49
2019-03-24T01:54:23.868Z,1001.49
2019-03-24T01:55:23.812Z,1001.49
2019-03-24T01:56:23.795Z,1001.50
2019-03-24T01:57:23.787Z,1001.48
2019-03-24T01:58:23.777Z,1001.53
2019-03-24T01:59:23.833Z,1001.49
2019-03-24T02:00:23.764Z,1001.49
2019-03-24T02:01:23.748Z,1001.50
2019-03-24T02:02:23.732Z,1001.44
2019-03-24T02:03:23.718Z,1001.46
2019-03-24T02:04:23.723Z,1001.43
2019-03-24T02:05:23.736Z,1001.33
2019-03-24T02:06:23.689Z,1001.42
2019-03-24T02:07:23.677Z,1001.41
2019-03-24T02:08:23.672Z,1001.42
2019-03-24T02:09:23.681Z,1001.41
2019-03-24T02:10:23.649Z,1001.42
2019-03-24T02:11:23.683Z,1001.42
2019-03-24T02:12:23.626Z,1001.41
2019-03-24T02:13:23.627Z,1001.40
2019-03-24T02:14:23.601Z,1001.41
2019-03-24T02:15:23.608Z,1001.41
2019-03-24T02:16:23.580Z,1001.39
2019-03-24T02:17:23.573Z,1001.38
2019-03-24T02:18:23.558Z,1001.35
2019-03-24T02:19:23.584Z,1001.38
2019-03-24T02:20:23.542Z,1001.37
2019-03-24T02:21:23.543Z,1001.32
2019-03-24T02:22:23.515Z,1001.33
2019-03-24T02:23:23.510Z,1001.37
2019-03-24T02:24:23.504Z,1001.35
2019-03-24T02:25:23.485Z,1001.30
2019-03-24T02:26:23.515Z,1001.31
2019-03-24T02:27:23.483Z,1001.31
2019-03-24T02:28:23.454Z,1001.31
2019-03-24T02:29:23.456Z,1001.28
2019-03-24T02:30:23.432Z,1001.26
2019-03-24T02:31:23.416Z,1001.27
2019-03-24T02:32:23.562Z,1001.25
2019-03-24T02:33:23.417Z,1001.26
2019-03-24T02:34:23.388Z,1001.21
2019-03-24T02:35:23.411Z,1001.21
2019-03-24T02:36:23.376Z,1001.21
2019-03-24T02:37:23.358Z,1001.20
2019-03-24T02:38:23.353Z,1001.23
2019-03-24T02:39:23.331Z,1001.16
2019-03-24T02:40:23.334Z,1001.18
2019-03-24T02:41:23.388Z,1001.17
2019-03-24T02:42:23.312Z,1001.14
2019-03-24T02:43:23.309Z,1001.17
2019-03-24T02:44:23.290Z,1001.14
2019-03-24T02:45:23.284Z,1001.18
2019-03-24T02:46:24.900Z,1001.15
2019-03-24T02:47:23.295Z,1001.15
2019-03-24T02:48:23.234Z,1001.16
2019-03-24T02:49:23.303Z,1001.13
2019-03-24T02:50:23.238Z,1001.09
2019-03-24T02:51:23.221Z,1001.12
2019-03-24T02:52:23.198Z,1001.08
2019-03-24T02:53:23.202Z,1001.11
2019-03-24T02:54:23.175Z,1001.14
2019-03-24T02:55:23.183Z,1001.16
2019-03-24T02:56:23.170Z,1001.12
2019-03-24T02:57:23.156Z,1001.09
2019-03-24T02:58:23.127Z,1001.11
2019-03-24T02:59:23.128Z,1001.06
2019-03-24T03:00:23.134Z,1001.08
2019-03-24T03:01:23.313Z,1001.05
2019-03-24T03:02:23.146Z,1001.03
2019-03-24T03:03:23.078Z,1001.09
2019-03-24T03:04:23.064Z,1001.04
2019-03-24T03:05:23.085Z,1001.08
2019-03-24T03:06:23.047Z,1001.06
2019-03-24T03:07:23.030Z,1001.03
2019-03-24T03:08:23.103Z,1001.00
2019-03-24T03:09:23.017Z,1001.06
2019-03-24T03:10:23.026Z,1001.05
2019-03-24T03:11:23.011Z,1001.12
2019-03-24T03:12:22.988Z,1001.10
2019-03-24T03:13:22.969Z,1001.05
2019-03-24T03:14:22.970Z,1001.12
2019-03-24T03:15:22.966Z,1001.07
2019-03-24T03:16:22.932Z,1001.07
2019-03-24T03:17:22.952Z,1001.03
2019-03-24T03:18:22.918Z,1001.06
2019-03-24T03:19:22.900Z,1001.05
2019-03-24T03:20:22.904Z,1001.04
2019-03-24T03:21:22.908Z,1001.04
2019-03-24T03:22:23.090Z,1001.02
2019-03-24T03:23:22.857Z,1001.08
2019-03-24T03:24:22.844Z,1001.07
2019-03-24T03:25:22.831Z,1001.05
2019-03-24T03:26:22.821Z,1001.07
2019-03-24T03:27:22.907Z,1001.00
2019-03-24T03:28:22.830Z,1001.01
2019-03-24T03:29:22.804Z,1001.01
2019-03-24T03:30:22.789Z,1001.02
2019-03-24T03:31:22.777Z,1000.99
2019-03-24T03:32:22.758Z,1000.98
2019-03-24T03:33:22.898Z,1001.01
2019-03-24T03:34:22.750Z,1000.97
2019-03-24T03:35:22.765Z,1001.00
2019-03-24T03:36:22.739Z,1000.98
2019-03-24T03:37:22.704Z,1000.97
2019-03-24T03:38:22.706Z,1000.95
2019-03-24T03:39:22.692Z,1000.96
2019-03-24T03:40:22.671Z,1000.95
2019-03-24T03:41:22.689Z,1000.92
2019-03-24T03:42:22.664Z,1000.90
2019-03-24T03:43:22.863Z,1000.87
2019-03-24T03:44:22.633Z,1000.86
2019-03-24T03:45:22.615Z,1000.86
2019-03-24T03:46:22.624Z,1000.84
2019-03-24T03:47:22.596Z,1000.86
2019-03-24T03:48:22.587Z,1000.81
2019-03-24T03:49:22.621Z,1000.79
2019-03-24T03:50:22.565Z,1000.83
2019-03-24T03:51:22.554Z,1000.83
2019-03-24T03:52:22.558Z,1000.84
2019-03-24T03:53:22.529Z,1000.79
2019-03-24T03:54:22.521Z,1000.80
2019-03-24T03:55:22.517Z,1000.80
2019-03-24T03:56:22.526Z,1000.84
2019-03-24T03:57:22.489Z,1000.79
2019-03-24T03:58:22.492Z,1000.78
2019-03-24T03:59:22.474Z,1000.77
2019-03-24T04:00:22.457Z,1000.75
2019-03-24T04:01:22.460Z,1000.75
2019-03-24T04:02:22.458Z,1000.75
2019-03-24T04:03:22.423Z,1000.72
2019-03-24T04:04:22.621Z,1000.72
2019-03-24T04:05:22.409Z,1000.71
2019-03-24T04:06:22.414Z,1000.70
2019-03-24T04:07:22.398Z,1000.70
2019-03-24T04:08:22.391Z,1000.65
2019-03-24T04:09:22.359Z,1000.65
2019-03-24T04:10:22.352Z,1000.68
2019-03-24T04:11:22.341Z,1000.68
2019-03-24T04:12:22.344Z,1000.69
2019-03-24T04:13:22.323Z,1000.72
2019-03-24T04:14:22.356Z,1000.69
2019-03-24T04:15:22.293Z,1000.73
2019-03-24T04:16:22.287Z,1000.72
2019-03-24T04:17:22.291Z,1000.70
2019-03-24T04:18:22.264Z,1000.73
2019-03-24T04:19:22.256Z,1000.74
2019-03-24T04:20:22.266Z,1000.71
2019-03-24T04:21:22.230Z,1000.65
2019-03-24T04:22:22.242Z,1000.66
2019-03-24T04:23:22.217Z,1000.66
2019-03-24T04:24:22.198Z,1000.62
2019-03-24T04:25:22.392Z,1000.60
2019-03-24T04:26:22.205Z,1000.61
2019-03-24T04:27:22.179Z,1000.58
2019-03-24T04:28:22.153Z,1000.60
2019-03-24T04:29:22.145Z,1000.58
2019-03-24T04:30:22.139Z,1000.56
2019-03-24T04:31:22.129Z,1000.57
2019-03-24T04:32:22.154Z,1000.55
2019-03-24T04:33:22.109Z,1000.54
2019-03-24T04:34:22.093Z,1000.50
2019-03-24T04:35:22.090Z,1000.51
2019-03-24T04:36:22.068Z,1000.52
2019-03-24T04:37:22.077Z,1000.52
2019-03-24T04:38:22.104Z,1000.49
2019-03-24T04:39:22.037Z,1000.47
2019-03-24T04:40:22.030Z,1000.46
2019-03-24T04:41:22.018Z,1000.46
2019-03-24T04:42:22.020Z,1000.45
2019-03-24T04:43:22.010Z,1000.47
2019-03-24T04:44:21.990Z,1000.47
2019-03-24T04:45:21.971Z,1000.45
2019-03-24T04:46:22.018Z,1000.44
2019-03-24T04:47:21.968Z,1000.42
2019-03-24T04:48:21.943Z,1000.45
2019-03-24T04:49:21.929Z,1000.38
2019-03-24T04:50:21.935Z,1000.38
2019-03-24T04:51:21.913Z,1000.39
2019-03-24T04:52:21.916Z,1000.41
2019-03-24T04:53:21.888Z,1000.37
2019-03-24T04:54:21.881Z,1000.36
2019-03-24T04:55:21.879Z,1000.36
2019-03-24T04:56:21.887Z,1000.39
2019-03-24T04:57:21.867Z,1000.40
2019-03-24T04:58:21.835Z,1000.42
2019-03-24T04:59:21.830Z,1000.44
2019-03-24T05:00:21.814Z,1000.39
2019-03-24T05:01:21.805Z,1000.45
2019-03-24T05:02:21.832Z,1000.44
2019-03-24T05:03:21.794Z,1000.47
2019-03-24T05:04:21.774Z,1000.47
2019-03-24T05:05:21.761Z,1000.48
2019-03-24T05:06:21.752Z,1000.51
2019-03-24T05:07:21.759Z,1000.50
2019-03-24T05:08:21.761Z,1000.48
2019-03-24T05:09:21.720Z,1000.47
2019-03-24T05:10:21.710Z,1000.48
2019-03-24T05:11:21.700Z,1000.51
2019-03-24T05:12:21.686Z,1000.46
2019-03-24T05:13:21.678Z,1000.52
2019-03-24T05:14:21.715Z,1000.51
2019-03-24T05:15:21.654Z,1000.47
2019-03-24T05:16:21.649Z,1000.46
2019-03-24T05:17:26.898Z,1000.46
2019-03-24T05:18:22.630Z,1000.43
2019-03-24T05:19:21.614Z,1000.41
2019-03-24T05:20:21.644Z,1000.40
2019-03-24T05:21:21.601Z,1000.42
2019-03-24T05:22:21.584Z,1000.40
2019-03-24T05:23:21.588Z,1000.37
2019-03-24T05:24:21.561Z,1000.37
2019-03-24T05:25:23.676Z,1000.36
2019-03-24T05:26:21.564Z,1000.34
2019-03-24T05:27:21.534Z,1000.33
2019-03-24T05:28:21.539Z,1000.35
2019-03-24T05:29:21.507Z,1000.33
2019-03-24T05:30:21.502Z,1000.36
2019-03-24T05:31:21.488Z,1000.34
2019-03-24T05:32:21.536Z,1000.34
2019-03-24T05:33:21.468Z,1000.33
2019-03-24T05:34:21.470Z,1000.32
2019-03-24T05:35:21.445Z,1000.37
2019-03-24T05:36:21.433Z,1000.38
2019-03-24T05:37:21.426Z,1000.30
2019-03-24T05:38:21.457Z,1000.37
2019-03-24T05:39:21.410Z,1000.39
2019-03-24T05:40:21.395Z,1000.34
2019-03-24T05:41:21.383Z,1000.31
2019-03-24T05:42:21.372Z,1000.37
2019-03-24T05:43:21.381Z,1000.33
2019-03-24T05:44:21.387Z,1000.36
2019-03-24T05:45:21.342Z,1000.35
2019-03-24T05:46:21.329Z,1000.33
2019-03-24T05:47:21.323Z,1000.38
2019-03-24T05:48:21.328Z,1000.40
2019-03-24T05:49:21.303Z,1000.38
2019-03-24T05:50:21.297Z,1000.38
2019-03-24T05:51:21.338Z,1000.36
2019-03-24T05:52:21.275Z,1000.34
2019-03-24T05:53:21.274Z,1000.37
2019-03-24T05:54:21.249Z,1000.38
2019-03-24T05:55:21.240Z,1000.34
2019-03-24T05:56:21.227Z,1000.35
2019-03-24T05:57:21.236Z,1000.37
2019-03-24T05:58:21.233Z,1000.38
2019-03-24T05:59:21.193Z,1000.39
2019-03-24T06:00:21.183Z,1000.39
2019-03-24T06:01:21.177Z,1000.38
2019-03-24T06:02:21.167Z,1000.41
2019-03-24T06:03:21.151Z,1000.39
2019-03-24T06:04:21.187Z,1000.42
2019-03-24T06:05:21.135Z,1000.45
2019-03-24T06:06:21.124Z,1000.47
2019-03-24T06:07:21.111Z,1000.45
2019-03-24T06:08:21.102Z,1000.47
2019-03-24T06:09:21.091Z,1000.46
2019-03-24T06:10:21.118Z,1000.44
2019-03-24T06:11:21.281Z,1000.47
2019-03-24T06:12:21.066Z,1000.44
2019-03-24T06:13:21.068Z,1000.47
2019-03-24T06:14:21.037Z,1000.48
2019-03-24T06:15:21.030Z,1000.48
2019-03-24T06:16:21.047Z,1000.49
2019-03-24T06:17:21.009Z,1000.46
2019-03-24T06:18:20.995Z,1000.45
2019-03-24T06:19:21.002Z,1000.51
2019-03-24T06:20:20.974Z,1000.45
2019-03-24T06:21:20.963Z,1000.48
2019-03-24T06:22:20.966Z,1000.49
2019-03-24T06:23:20.965Z,1000.51
2019-03-24T06:24:20.938Z,1000.46
2019-03-24T06:25:20.929Z,1000.43
2019-03-24T06:26:20.907Z,1000.44
2019-03-24T06:27:20.898Z,1000.43
2019-03-24T06:28:20.888Z,1000.42
2019-03-24T06:29:20.898Z,1000.45
2019-03-24T06:30:20.889Z,1000.44
2019-03-24T06:31:20.857Z,1000.40
2019-03-24T06:32:20.895Z,1000.45
2019-03-24T06:33:20.835Z,1000.47
2019-03-24T06:34:20.826Z,1000.41
2019-03-24T06:35:20.834Z,1000.43
2019-03-24T06:36:20.814Z,1000.45
2019-03-24T06:37:20.807Z,1000.41
2019-03-24T06:38:20.801Z,1000.46
2019-03-24T06:39:20.811Z,1000.45
2019-03-24T06:40:20.760Z,1000.45
2019-03-24T06:41:20.755Z,1000.46
2019-03-24T06:42:20.739Z,1000.49
2019-03-24T06:43:20.729Z,1000.43
2019-03-24T06:44:20.743Z,1000.44
2019-03-24T06:45:28.274Z,1000.43
2019-03-24T06:46:21.706Z,1000.39
2019-03-24T06:47:20.696Z,1000.45
2019-03-24T06:48:20.678Z,1000.41
2019-03-24T06:49:20.760Z,1000.39
2019-03-24T06:50:20.660Z,1000.43
2019-03-24T06:51:20.671Z,1000.34
2019-03-24T06:52:20.637Z,1000.36
2019-03-24T06:53:20.696Z,1000.37
2019-03-24T06:54:20.636Z,1000.37
2019-03-24T06:55:20.645Z,1000.36
2019-03-24T06:56:20.601Z,1000.37
2019-03-24T06:57:20.596Z,1000.37
2019-03-24T06:58:20.660Z,1000.36
2019-03-24T06:59:20.582Z,1000.34
2019-03-24T07:00:20.553Z,1000.36
2019-03-24T07:01:20.581Z,1000.41
2019-03-24T07:02:20.540Z,1000.37
2019-03-24T07:03:20.529Z,1000.36
2019-03-24T07:04:20.518Z,1000.33
2019-03-24T07:05:20.522Z,1000.35
2019-03-24T07:06:20.492Z,1000.35
2019-03-24T07:07:20.532Z,1000.23
2019-03-24T07:08:20.485Z,1000.22
2019-03-24T07:09:20.479Z,1000.20
2019-03-24T07:10:20.470Z,1000.23
2019-03-24T07:11:20.451Z,1000.17
2019-03-24T07:12:20.432Z,1000.14
2019-03-24T07:13:20.419Z,1000.10
2019-03-24T07:14:20.407Z,1000.07
2019-03-24T07:15:20.624Z,1000.11
2019-03-24T07:16:20.393Z,1000.05
2019-03-24T07:17:20.388Z,1000.06
2019-03-24T07:18:20.368Z,1000.03
2019-03-24T07:19:20.412Z,1000.04
2019-03-24T07:20:20.362Z,999.97
2019-03-24T07:21:20.333Z,1000.03
2019-03-24T07:22:20.358Z,1000.01
2019-03-24T07:23:20.310Z,1000.02
2019-03-24T07:24:20.312Z,1000.03
2019-03-24T07:25:20.308Z,1000.04
2019-03-24T07:26:20.297Z,1000.06
2019-03-24T07:27:20.306Z,1000.07
2019-03-24T07:28:20.260Z,1000.04
2019-03-24T07:29:20.242Z,1000.03
2019-03-24T07:30:20.251Z,1000.00
2019-03-24T07:31:20.226Z,999.99
2019-03-24T07:32:20.216Z,999.99
2019-03-24T07:33:20.271Z,999.97
2019-03-24T07:34:20.195Z,1000.00
2019-03-24T07:35:20.192Z,999.96
2019-03-24T07:36:20.201Z,999.93
2019-03-24T07:37:20.167Z,999.93
2019-03-24T07:38:20.147Z,999.93
2019-03-24T07:39:20.189Z,999.95
2019-03-24T07:40:20.155Z,999.91
2019-03-24T07:41:20.133Z,999.93
2019-03-24T07:42:20.134Z,999.93
2019-03-24T07:43:20.095Z,999.93
2019-03-24T07:44:20.090Z,999.95
2019-03-24T07:45:20.117Z,1000.00
2019-03-24T07:46:20.090Z,999.95
2019-03-24T07:47:20.057Z,999.92
2019-03-24T07:48:20.045Z,999.92
2019-03-24T07:49:20.090Z,999.91
2019-03-24T07:50:20.046Z,999.94
2019-03-24T07:51:20.007Z,999.87
2019-03-24T07:52:19.993Z,999.85
2019-03-24T07:53:19.983Z,999.87
2019-03-24T07:54:19.972Z,999.83
2019-03-24T07:55:19.972Z,999.86
2019-03-24T07:56:20.016Z,999.85
2019-03-24T07:57:20.167Z,999.83
2019-03-24T07:58:19.945Z,999.80
2019-03-24T07:59:19.948Z,999.81
2019-03-24T08:00:19.931Z,999.83
2019-03-24T08:01:19.947Z,999.82
2019-03-24T08:02:19.917Z,999.81
2019-03-24T08:03:19.877Z,999.80
2019-03-24T08:04:19.945Z,999.75
2019-03-24T08:05:19.861Z,999.77
2019-03-24T08:06:19.845Z,999.74
2019-03-24T08:07:19.854Z,999.74
2019-03-24T08:08:19.826Z,999.68
2019-03-24T08:09:19.841Z,999.69
2019-03-24T08:10:19.803Z,999.69
2019-03-24T08:11:19.807Z,999.68
2019-03-24T08:12:19.816Z,999.63
2019-03-24T08:13:19.795Z,999.61
2019-03-24T08:14:19.762Z,999.61
2019-03-24T08:15:19.748Z,999.62
2019-03-24T08:16:19.744Z,999.60
2019-03-24T08:17:19.784Z,999.58
2019-03-24T08:18:29.563Z,999.58
2019-03-24T08:19:20.723Z,999.55
2019-03-24T08:20:19.700Z,999.58
2019-03-24T08:21:19.694Z,999.55
2019-03-24T08:22:19.702Z,999.57
2019-03-24T08:23:19.684Z,999.52
2019-03-24T08:24:19.651Z,999.55
2019-03-24T08:25:19.670Z,999.56
2019-03-24T08:26:19.636Z,999.54
2019-03-24T08:27:19.625Z,999.50
2019-03-24T08:28:19.610Z,999.52
2019-03-24T08:29:19.631Z,999.49
2019-03-24T08:30:19.594Z,999.46
2019-03-24T08:31:19.598Z,999.46
2019-03-24T08:32:19.573Z,999.47
2019-03-24T08:33:19.557Z,999.50
2019-03-24T08:34:19.552Z,999.51
2019-03-24T08:35:19.536Z,999.47
2019-03-24T08:36:19.553Z,999.42
2019-03-24T08:37:19.536Z,999.47
2019-03-24T08:38:19.505Z,999.45
2019-03-24T08:39:19.499Z,999.43
2019-03-24T08:40:19.489Z,999.46
2019-03-24T08:41:19.471Z,999.45
2019-03-24T08:42:19.472Z,999.45
2019-03-24T08:43:19.541Z,999.42
2019-03-24T08:44:19.442Z,999.51
2019-03-24T08:45:19.437Z,999.50
2019-03-24T08:46:19.421Z,999.50
2019-03-24T08:47:19.407Z,999.51
2019-03-24T08:48:19.410Z,999.52
2019-03-24T08:49:19.408Z,999.48
2019-03-24T08:50:19.399Z,999.50
2019-03-24T08:51:19.371Z,999.51
2019-03-24T08:52:19.367Z,999.49
2019-03-24T08:53:19.396Z,999.51
2019-03-24T08:54:19.335Z,999.52
2019-03-24T08:55:19.326Z,999.54
2019-03-24T08:56:19.351Z,999.53
2019-03-24T08:57:19.322Z,999.54
2019-03-24T08:58:19.294Z,999.56
2019-03-24T08:59:19.279Z,999.59
2019-03-24T09:00:29.885Z,999.61
2019-03-24T09:01:20.256Z,999.57
2019-03-24T09:02:19.296Z,999.57
2019-03-24T09:03:19.245Z,999.56
2019-03-24T09:04:19.227Z,999.57
2019-03-24T09:05:19.227Z,999.54
2019-03-24T09:06:19.209Z,999.54
2019-03-24T09:07:19.213Z,999.55
2019-03-24T09:08:19.216Z,999.56
2019-03-24T09:09:19.177Z,999.56
2019-03-24T09:10:19.163Z,999.55
2019-03-24T09:11:19.149Z,999.58
2019-03-24T09:12:19.157Z,999.58
2019-03-24T09:13:19.131Z,999.57
2019-03-24T09:14:19.148Z,999.54
2019-03-24T09:15:19.110Z,999.53
2019-03-24T09:16:19.097Z,999.53
2019-03-24T09:17:19.100Z,999.55
2019-03-24T09:18:19.077Z,999.54
2019-03-24T09:19:19.068Z,999.55
2019-03-24T09:20:19.066Z,999.55
2019-03-24T09:21:19.663Z,999.51
2019-03-24T09:22:19.064Z,999.49
2019-03-24T09:23:19.019Z,999.49
2019-03-24T09:24:19.008Z,999.48
2019-03-24T09:25:19.070Z,999.44
2019-03-24T09:26:18.987Z,999.49
2019-03-24T09:27:19.008Z,999.48
2019-03-24T09:28:19.016Z,999.51
2019-03-24T09:29:18.951Z,999.47
2019-03-24T09:30:18.946Z,999.46
2019-03-24T09:31:18.932Z,999.47
2019-03-24T09:32:18.941Z,999.54
2019-03-24T09:33:18.910Z,999.51
2019-03-24T09:34:18.911Z,999.46
2019-03-24T09:35:18.897Z,999.51
2019-03-24T09:36:18.878Z,999.50
2019-03-24T09:37:18.883Z,999.48
2019-03-24T09:38:18.852Z,999.57
2019-03-24T09:39:18.843Z,999.61
2019-03-24T09:40:18.892Z,999.57
2019-03-24T09:41:18.828Z,999.60
2019-03-24T09:42:18.809Z,999.56
2019-03-24T09:43:18.825Z,999.58
2019-03-24T09:44:18.790Z,999.58
2019-03-24T09:45:18.775Z,999.59
2019-03-24T09:46:18.801Z,999.58
2019-03-24T09:47:18.766Z,999.59
2019-03-24T09:48:18.745Z,999.62
2019-03-24T09:49:18.757Z,999.61
2019-03-24T09:50:18.725Z,999.65
2019-03-24T09:51:21.018Z,999.69
2019-03-24T09:52:18.717Z,999.70
2019-03-24T09:53:18.718Z,999.70
2019-03-24T09:54:18.680Z,999.69
2019-03-24T09:55:18.685Z,999.70
2019-03-24T09:56:18.663Z,999.65
2019-03-24T09:57:18.647Z,999.68
2019-03-24T09:58:18.638Z,999.65
2019-03-24T09:59:18.645Z,999.66
2019-03-24T10:00:18.621Z,999.67
2019-03-24T10:01:18.800Z,999.65
2019-03-24T10:02:18.622Z,999.60
2019-03-24T10:03:18.609Z,999.63
2019-03-24T10:04:18.600Z,999.63
2019-03-24T10:05:18.597Z,999.60
2019-03-24T10:06:18.551Z,999.66
2019-03-24T10:07:18.600Z,999.67
2019-03-24T10:08:18.533Z,999.69
2019-03-24T10:09:18.518Z,999.70
2019-03-24T10:10:18.521Z,999.68
2019-03-24T10:11:18.518Z,999.64
2019-03-24T10:12:18.510Z,999.64
2019-03-24T10:13:18.478Z,999.65
2019-03-24T10:14:18.471Z,999.62
2019-03-24T10:15:18.457Z,999.58
2019-03-24T10:16:18.470Z,999.61
2019-03-24T10:17:18.455Z,999.61
2019-03-24T10:18:18.423Z,999.58
2019-03-24T10:19:18.410Z,999.51
2019-03-24T10:20:18.407Z,999.55
2019-03-24T10:21:18.386Z,999.56
2019-03-24T10:22:18.422Z,999.58
2019-03-24T10:23:18.369Z,999.53
2019-03-24T10:24:18.353Z,999.52
2019-03-24T10:25:18.347Z,999.54
2019-03-24T10:26:18.332Z,999.53
2019-03-24T10:27:18.321Z,999.57
2019-03-24T10:28:18.346Z,999.56
2019-03-24T10:29:18.312Z,999.52
2019-03-24T10:30:18.301Z,999.58
2019-03-24T10:31:18.297Z,999.57
2019-03-24T10:32:18.271Z,999.60
2019-03-24T10:33:18.257Z,999.68
2019-03-24T10:34:18.263Z,999.66
2019-03-24T10:35:18.237Z,999.62
2019-03-24T10:36:18.227Z,999.61
2019-03-24T10:37:18.250Z,999.58
2019-03-24T10:38:18.222Z,999.61
2019-03-24T10:39:18.201Z,999.60
2019-03-24T10:40:28.245Z,999.55
2019-03-24T10:41:19.168Z,999.54
2019-03-24T10:42:18.161Z,999.52
2019-03-24T10:43:18.201Z,999.54
2019-03-24T10:44:18.142Z,999.56
2019-03-24T10:45:18.130Z,999.51
2019-03-24T10:46:18.486Z,999.48
2019-03-24T10:47:18.125Z,999.41
2019-03-24T10:48:18.110Z,999.34
2019-03-24T10:49:24.672Z,999.39
2019-03-24T10:50:19.127Z,999.41
2019-03-24T10:51:18.072Z,999.41
2019-03-24T10:52:18.087Z,999.40
2019-03-24T10:53:18.088Z,999.38
2019-03-24T10:54:18.054Z,999.38
2019-03-24T10:55:18.025Z,999.38
2019-03-24T10:56:18.013Z,999.37
2019-03-24T10:57:18.032Z,999.38
2019-03-24T10:58:18.008Z,999.38
2019-03-24T10:59:17.977Z,999.33
2019-03-24T11:00:17.987Z,999.34
2019-03-24T11:01:17.994Z,999.28
2019-03-24T11:02:17.953Z,999.28
2019-03-24T11:03:18.055Z,999.19
2019-03-24T11:04:17.942Z,999.22
2019-03-24T11:05:17.941Z,999.18
2019-03-24T11:06:17.902Z,999.16
2019-03-24T11:07:17.950Z,999.14
2019-03-24T11:08:17.936Z,999.13
2019-03-24T11:09:17.880Z,999.08
2019-03-24T11:10:17.860Z,999.04
2019-03-24T11:11:17.861Z,998.99
2019-03-24T11:12:17.844Z,999.01
2019-03-24T11:13:17.858Z,998.95
2019-03-24T11:14:17.925Z,998.90
2019-03-24T11:15:17.804Z,998.87
2019-03-24T11:16:17.821Z,998.86
2019-03-24T11:17:17.785Z,998.86
2019-03-24T11:18:17.796Z,998.86
2019-03-24T11:19:17.788Z,998.84
2019-03-24T11:20:17.755Z,998.84
2019-03-24T11:21:17.745Z,998.84
2019-03-24T11:22:17.729Z,998.80
2019-03-24T11:23:17.745Z,998.80
2019-03-24T11:24:17.720Z,998.79
2019-03-24T11:25:17.747Z,998.81
2019-03-24T11:26:17.686Z,998.83
2019-03-24T11:27:17.676Z,998.89
2019-03-24T11:28:19.247Z,998.86
2019-03-24T11:29:17.672Z,998.86
2019-03-24T11:30:17.656Z,998.89
2019-03-24T11:31:17.639Z,998.87
2019-03-24T11:32:17.693Z,998.83
2019-03-24T11:33:17.615Z,998.82
2019-03-24T11:34:17.616Z,998.80
2019-03-24T11:35:17.666Z,998.80
2019-03-24T11:36:17.891Z,998.77
2019-03-24T11:37:17.578Z,998.82
2019-03-24T11:38:17.659Z,998.74
2019-03-24T11:39:17.550Z,998.74
2019-03-24T11:40:17.543Z,998.72
2019-03-24T11:41:17.595Z,998.73
2019-03-24T11:42:17.517Z,998.76
2019-03-24T11:43:17.528Z,998.71
2019-03-24T11:44:17.498Z,998.75
2019-03-24T11:45:17.483Z,998.74
2019-03-24T11:46:17.514Z,998.75
2019-03-24T11:47:26.327Z,998.82
2019-03-24T11:48:18.479Z,998.78
2019-03-24T11:49:17.668Z,998.78
2019-03-24T11:50:17.429Z,998.74
2019-03-24T11:51:17.428Z,998.75
2019-03-24T11:52:17.465Z,998.67
2019-03-24T11:53:17.731Z,998.68
2019-03-24T11:54:17.390Z,998.59
2019-03-24T11:55:17.400Z,998.67
2019-03-24T11:56:17.374Z,998.63
2019-03-24T11:57:17.361Z,998.67
2019-03-24T11:58:17.347Z,998.61
2019-03-24T11:59:17.692Z,998.61
2019-03-24T12:00:17.335Z,998.66
2019-03-24T12:01:17.315Z,998.64
2019-03-24T12:02:17.349Z,998.62
2019-03-24T12:03:17.297Z,998.63
2019-03-24T12:04:17.282Z,998.63
2019-03-24T12:05:17.292Z,998.62
2019-03-24T12:06:17.279Z,998.62
2019-03-24T12:07:17.263Z,998.60
2019-03-24T12:08:17.297Z,998.61
2019-03-24T12:09:17.228Z,998.61
2019-03-24T12:10:17.422Z,998.63
2019-03-24T12:11:17.225Z,998.63
2019-03-24T12:12:17.192Z,998.61
2019-03-24T12:13:17.195Z,998.61
2019-03-24T12:14:17.246Z,998.59